createdAt,value
2018-11-23T00:01:24.473Z,1.34
2018-11-23T00:03:52.853Z,1.33
2018-11-23T00:06:21.119Z,1.31
2018-11-23T00:08:49.409Z,1.29
2018-11-23T00:11:17.708Z,1.25
2018-11-23T00:13:46.221Z,1.24
2018-11-23T00:16:14.517Z,1.20
2018-11-23T00:18:42.796Z,1.15
2018-11-23T00:21:11.071Z,1.11
2018-11-23T00:23:39.387Z,1.09
2018-11-23T00:26:07.669Z,1.11
2018-11-23T00:28:35.936Z,1.12
2018-11-23T00:31:04.225Z,1.11
2018-11-23T00:33:32.484Z,1.06
2018-11-23T00:36:00.781Z,1.06
2018-11-23T00:38:29.033Z,1.04
2018-11-23T00:40:57.335Z,1.01
2018-11-23T00:43:25.629Z,1.01
2018-11-23T00:45:53.907Z,1.02
2018-11-23T00:48:22.204Z,1.02
2018-11-23T00:50:50.513Z,0.99
2018-11-23T00:53:18.795Z,0.96
2018-11-23T00:55:47.067Z,0.92
2018-11-23T00:58:15.377Z,0.91
2018-11-23T01:00:43.672Z,0.92
2018-11-23T01:03:11.946Z,0.91
2018-11-23T01:05:40.214Z,0.92
2018-11-23T01:08:08.484Z,0.91
2018-11-23T01:10:36.804Z,0.93
2018-11-23T01:13:05.635Z,0.97
2018-11-23T01:15:33.917Z,0.98
2018-11-23T01:18:02.212Z,1.01
2018-11-23T01:20:30.507Z,1.03
2018-11-23T01:22:59.175Z,1.06
2018-11-23T01:25:28.169Z,1.09
2018-11-23T01:27:56.868Z,1.11
2018-11-23T01:30:27.381Z,1.11
2018-11-23T01:32:55.670Z,1.08
2018-11-23T01:35:24.055Z,1.04
2018-11-23T01:37:52.312Z,1.02
2018-11-23T01:40:22.850Z,1.03
2018-11-23T01:42:51.472Z,1.03
2018-11-23T01:45:19.756Z,1.02
2018-11-23T01:47:48.031Z,0.99
2018-11-23T01:50:19.335Z,0.98
2018-11-23T01:52:48.539Z,1.00
2018-11-23T01:55:17.723Z,0.98
2018-11-23T01:57:46.343Z,0.98
2018-11-23T02:00:18.298Z,0.99
2018-11-23T02:02:47.257Z,0.96
2018-11-23T02:05:15.601Z,0.99
2018-11-23T02:07:50.360Z,1.01
2018-11-23T02:10:19.060Z,1.02
2018-11-23T02:12:47.369Z,1.03
2018-11-23T02:15:17.845Z,0.98
2018-11-23T02:17:46.296Z,0.93
2018-11-23T02:20:15.966Z,0.90
2018-11-23T02:22:44.232Z,0.87
2018-11-23T02:25:12.513Z,0.80
2018-11-23T02:27:40.833Z,0.78
2018-11-23T02:30:13.949Z,0.76
2018-11-23T02:32:42.572Z,0.79
2018-11-23T02:35:10.853Z,0.81
2018-11-23T02:37:39.152Z,0.81
2018-11-23T02:40:08.393Z,0.74
2018-11-23T02:42:37.104Z,0.70
2018-11-23T02:45:06.966Z,0.67
2018-11-23T02:47:35.252Z,0.64
2018-11-23T02:50:03.536Z,0.65
2018-11-23T02:52:31.815Z,0.64
2018-11-23T02:55:00.135Z,0.58
2018-11-23T02:57:28.396Z,0.55
2018-11-23T02:59:56.653Z,0.53
2018-11-23T03:02:24.957Z,0.51
2018-11-23T03:04:53.205Z,0.47
2018-11-23T03:07:21.533Z,0.44
2018-11-23T03:09:49.835Z,0.42
2018-11-23T03:12:18.068Z,0.39
2018-11-23T03:14:46.368Z,0.37
2018-11-23T03:17:14.706Z,0.35
2018-11-23T03:19:43.025Z,0.32
2018-11-23T03:22:11.341Z,0.32
2018-11-23T03:24:46.944Z,0.32
2018-11-23T03:27:16.131Z,0.30
2018-11-23T03:29:44.412Z,0.29
2018-11-23T03:32:12.681Z,0.28
2018-11-23T03:34:40.947Z,0.28
2018-11-23T03:37:09.185Z,0.30
2018-11-23T03:39:37.503Z,0.31
2018-11-23T03:42:05.941Z,0.34
2018-11-23T03:44:34.212Z,0.35
2018-11-23T03:47:02.516Z,0.36
2018-11-23T03:49:30.753Z,0.38
2018-11-23T03:51:59.048Z,0.37
2018-11-23T03:54:27.323Z,0.36
2018-11-23T03:56:55.708Z,0.33
2018-11-23T03:59:23.973Z,0.27
2018-11-23T04:01:52.260Z,0.22
2018-11-23T04:04:20.528Z,0.22
2018-11-23T04:06:48.784Z,0.25
2018-11-23T04:11:57.401Z,0.36
2018-11-23T04:14:25.732Z,0.37
2018-11-23T04:16:53.994Z,0.31
2018-11-23T04:19:22.265Z,0.27
2018-11-23T04:21:50.540Z,0.25
2018-11-23T04:24:18.824Z,0.26
2018-11-23T04:26:47.327Z,0.29
2018-11-23T04:29:15.599Z,0.32
2018-11-23T04:31:43.864Z,0.33
2018-11-23T04:34:12.173Z,0.32
2018-11-23T04:36:40.481Z,0.31
2018-11-23T04:39:09.221Z,0.28
2018-11-23T04:41:37.504Z,0.28
2018-11-23T04:44:06.029Z,0.29
2018-11-23T04:46:34.316Z,0.29
2018-11-23T04:49:02.592Z,0.28
2018-11-23T04:51:30.868Z,0.28
2018-11-23T04:53:59.153Z,0.28
2018-11-23T04:56:27.483Z,0.27
2018-11-23T04:58:55.804Z,0.26
2018-11-23T05:01:24.067Z,0.25
2018-11-23T05:03:52.373Z,0.23
2018-11-23T05:06:20.647Z,0.23
2018-11-23T05:08:48.920Z,0.27
2018-11-23T05:11:17.224Z,0.29
2018-11-23T05:13:45.509Z,0.29
2018-11-23T05:16:13.762Z,0.26
2018-11-23T05:18:42.089Z,0.20
2018-11-23T05:21:10.420Z,0.16
2018-11-23T05:23:38.691Z,0.15
2018-11-23T05:26:07.076Z,0.14
2018-11-23T05:28:35.424Z,0.11
2018-11-23T05:31:03.680Z,0.10
2018-11-23T05:33:32.040Z,0.13
2018-11-23T05:36:00.309Z,0.13
2018-11-23T05:38:28.612Z,0.15
2018-11-23T05:40:56.908Z,0.15
2018-11-23T05:43:25.175Z,0.17
2018-11-23T05:45:53.416Z,0.18
2018-11-23T05:48:26.824Z,0.21
2018-11-23T05:50:50.005Z,0.20
2018-11-23T05:53:18.308Z,0.18
2018-11-23T05:55:46.576Z,0.18
2018-11-23T05:58:14.877Z,0.15
2018-11-23T06:00:43.127Z,0.17
2018-11-23T06:03:11.464Z,0.22
2018-11-23T06:05:39.751Z,0.22
2018-11-23T06:08:07.987Z,0.18
2018-11-23T06:10:36.222Z,0.17
2018-11-23T06:13:04.582Z,0.18
2018-11-23T06:15:32.911Z,0.21
2018-11-23T06:18:01.204Z,0.23
2018-11-23T06:20:29.463Z,0.25
2018-11-23T06:22:57.747Z,0.26
2018-11-23T06:25:28.281Z,0.30
2018-11-23T06:27:56.540Z,0.31
2018-11-23T06:30:24.839Z,0.29
2018-11-23T06:33:04.623Z,0.29
2018-11-23T06:35:32.920Z,0.28
2018-11-23T06:38:01.241Z,0.27
2018-11-23T06:40:29.529Z,0.25
2018-11-23T06:42:57.797Z,0.17
2018-11-23T06:45:26.141Z,0.16
2018-11-23T06:47:54.432Z,0.19
2018-11-23T06:50:22.704Z,0.23
2018-11-23T06:52:50.983Z,0.26
2018-11-23T06:55:19.276Z,0.28
2018-11-23T06:57:47.541Z,0.28
2018-11-23T07:00:16.631Z,0.28
2018-11-23T07:02:45.437Z,0.28
2018-11-23T07:05:14.096Z,0.26
2018-11-23T07:07:42.469Z,0.26
2018-11-23T07:10:11.280Z,0.27
2018-11-23T07:12:40.146Z,0.29
2018-11-23T07:15:09.963Z,0.27
2018-11-23T07:17:38.556Z,0.25
2018-11-23T07:20:08.649Z,0.25
2018-11-23T07:22:37.041Z,0.27
2018-11-23T07:25:06.020Z,0.31
2018-11-23T07:27:34.293Z,0.36
2018-11-23T07:30:02.662Z,0.38
2018-11-23T07:32:30.959Z,0.41
2018-11-23T07:34:59.205Z,0.46
2018-11-23T07:37:27.478Z,0.51
2018-11-23T07:40:07.124Z,0.52
2018-11-23T07:42:35.416Z,0.53
2018-11-23T07:45:03.672Z,0.55
2018-11-23T07:47:31.948Z,0.58
2018-11-23T07:50:00.228Z,0.59
2018-11-23T07:52:28.501Z,0.64
2018-11-23T07:54:56.788Z,0.64
2018-11-23T07:57:25.056Z,0.65
2018-11-23T07:59:53.416Z,0.69
2018-11-23T08:02:21.685Z,0.75
2018-11-23T08:04:49.940Z,0.75
2018-11-23T08:07:18.228Z,0.75
2018-11-23T08:09:46.501Z,0.78
2018-11-23T08:12:14.764Z,0.79
2018-11-23T08:14:43.054Z,0.80
2018-11-23T08:17:11.292Z,0.83
2018-11-23T08:19:47.011Z,0.86
2018-11-23T08:22:07.834Z,0.88
2018-11-23T08:24:36.101Z,0.92
2018-11-23T08:27:04.428Z,0.91
2018-11-23T08:29:32.700Z,0.96
2018-11-23T08:32:01.001Z,1.05
2018-11-23T08:34:29.316Z,1.15
2018-11-23T08:36:57.647Z,1.22
2018-11-23T08:39:25.947Z,1.29
2018-11-23T08:41:54.183Z,1.35
2018-11-23T08:44:22.500Z,1.40
2018-11-23T08:46:50.756Z,1.41
2018-11-23T08:49:19.079Z,1.43
2018-11-23T08:51:47.359Z,1.44
2018-11-23T08:54:15.652Z,1.41
2018-11-23T08:56:43.911Z,1.44
2018-11-23T08:59:12.237Z,1.48
2018-11-23T09:01:40.515Z,1.53
2018-11-23T09:04:08.792Z,1.62
2018-11-23T09:06:37.320Z,1.68
2018-11-23T09:09:08.556Z,1.75
2018-11-23T09:11:36.872Z,1.80
2018-11-23T09:14:06.104Z,1.80
2018-11-23T09:16:34.388Z,1.83
2018-11-23T09:19:02.715Z,1.91
2018-11-23T09:21:30.968Z,1.99
2018-11-23T09:23:59.225Z,2.05
2018-11-23T09:26:27.531Z,2.05
2018-11-23T09:28:55.819Z,2.11
2018-11-23T09:31:24.107Z,2.18
2018-11-23T09:33:52.413Z,2.27
2018-11-23T09:36:20.706Z,2.31
2018-11-23T09:38:48.991Z,2.37
2018-11-23T09:41:17.267Z,2.40
2018-11-23T09:43:45.537Z,2.48
2018-11-23T09:46:13.825Z,2.51
2018-11-23T09:48:42.195Z,2.55
2018-11-23T09:51:10.621Z,2.59
2018-11-23T09:53:38.877Z,2.66
2018-11-23T09:56:07.175Z,2.77
2018-11-23T09:58:35.455Z,2.84
2018-11-23T10:01:03.849Z,2.88
2018-11-23T10:03:32.136Z,2.94
2018-11-23T10:06:01.588Z,3.04
2018-11-23T10:08:28.801Z,3.15
2018-11-23T10:10:57.060Z,3.23
2018-11-23T10:13:25.351Z,3.28
2018-11-23T10:15:53.608Z,3.37
2018-11-23T10:18:21.927Z,3.47
2018-11-23T10:20:50.180Z,3.57
2018-11-23T10:23:18.428Z,3.66
2018-11-23T10:25:46.676Z,3.74
2018-11-23T10:28:14.947Z,3.80
2018-11-23T10:30:43.220Z,3.85
2018-11-23T10:33:11.496Z,3.88
2018-11-23T10:35:39.772Z,3.96
2018-11-23T10:38:08.206Z,4.00
2018-11-23T10:40:37.976Z,4.05
2018-11-23T10:43:06.837Z,4.09
2018-11-23T10:45:35.452Z,4.13
2018-11-23T10:48:04.967Z,4.17
2018-11-23T10:50:34.968Z,4.23
2018-11-23T10:53:03.256Z,4.30
2018-11-23T10:55:32.972Z,4.37
2018-11-23T10:58:01.249Z,4.42
2018-11-23T11:00:34.919Z,4.49
2018-11-23T11:03:08.380Z,4.56
2018-11-23T11:05:42.120Z,4.63
2018-11-23T11:08:10.487Z,4.70
2018-11-23T11:10:38.772Z,4.78
2018-11-23T11:13:07.079Z,4.85
2018-11-23T11:15:35.327Z,4.89
2018-11-23T11:18:03.601Z,4.93
2018-11-23T11:20:31.864Z,4.97
2018-11-23T11:23:00.144Z,5.00
2018-11-23T11:25:28.435Z,5.05
2018-11-23T11:27:56.743Z,5.12
2018-11-23T11:30:25.036Z,5.17
2018-11-23T11:32:53.344Z,5.25
2018-11-23T11:35:21.632Z,5.33
2018-11-23T11:37:49.883Z,5.39
2018-11-23T11:40:19.335Z,5.44
2018-11-23T11:42:47.593Z,5.48
2018-11-23T11:45:19.280Z,5.51
2018-11-23T11:47:48.044Z,5.53
2018-11-23T11:50:16.428Z,5.57
2018-11-23T11:52:47.139Z,5.59
2018-11-23T11:55:16.775Z,5.65
2018-11-23T11:57:45.679Z,5.74
2018-11-23T12:00:17.606Z,5.80
2018-11-23T12:02:46.114Z,5.83
2018-11-23T12:05:14.688Z,5.86
2018-11-23T12:07:42.973Z,5.87
2018-11-23T12:10:13.912Z,5.91
2018-11-23T12:12:42.249Z,5.95
2018-11-23T12:15:11.599Z,5.99
2018-11-23T12:17:40.184Z,6.04
2018-11-23T12:20:11.259Z,6.06
2018-11-23T12:22:39.530Z,6.14
2018-11-23T12:25:07.832Z,6.19
2018-11-23T12:27:36.155Z,6.24
2018-11-23T12:30:05.837Z,6.30
2018-11-23T12:32:34.108Z,6.33
2018-11-23T12:35:02.376Z,6.39
2018-11-23T12:37:30.729Z,6.41
2018-11-23T12:39:59.000Z,6.45
2018-11-23T12:42:27.275Z,6.45
2018-11-23T12:44:55.547Z,6.50
2018-11-23T12:47:23.804Z,6.55
2018-11-23T12:49:52.039Z,6.58
2018-11-23T12:52:20.337Z,6.62
2018-11-23T12:54:48.625Z,6.67
2018-11-23T12:57:16.931Z,6.69
2018-11-23T12:59:45.207Z,6.73
2018-11-23T13:02:13.472Z,6.79
2018-11-23T13:04:41.741Z,6.81
2018-11-23T13:07:10.014Z,6.82
2018-11-23T13:09:38.326Z,6.80
2018-11-23T13:12:06.572Z,6.86
2018-11-23T13:14:34.888Z,6.90
2018-11-23T13:17:03.163Z,6.93
2018-11-23T13:19:31.688Z,6.95
2018-11-23T13:22:00.021Z,6.99
2018-11-23T13:24:28.343Z,7.07
2018-11-23T13:26:56.603Z,7.09
2018-11-23T13:29:24.887Z,7.14
2018-11-23T13:31:53.221Z,7.17
2018-11-23T13:34:21.517Z,7.15
2018-11-23T13:36:49.814Z,7.17
2018-11-23T13:39:18.147Z,7.18
2018-11-23T13:41:46.421Z,7.20
2018-11-23T13:44:14.663Z,7.21
2018-11-23T13:46:42.960Z,7.22
2018-11-23T13:49:11.209Z,7.20
2018-11-23T13:51:39.485Z,7.19
2018-11-23T13:54:07.720Z,7.18
2018-11-23T13:56:35.980Z,7.21
2018-11-23T13:59:04.576Z,7.22
2018-11-23T14:01:32.832Z,7.21
2018-11-23T14:04:01.080Z,7.20
2018-11-23T14:06:29.351Z,7.21
2018-11-23T14:08:57.617Z,7.19
2018-11-23T14:11:25.885Z,7.16
2018-11-23T14:13:54.152Z,7.15
2018-11-23T14:16:22.479Z,7.15
2018-11-23T14:18:50.740Z,7.13
2018-11-23T14:21:19.068Z,7.13
2018-11-23T14:23:47.321Z,7.10
2018-11-23T14:26:15.600Z,7.08
2018-11-23T14:28:43.859Z,7.08
2018-11-23T14:31:12.324Z,7.08
2018-11-23T14:33:40.600Z,7.03
2018-11-23T14:36:08.884Z,7.02
2018-11-23T14:38:37.192Z,6.99
2018-11-23T14:41:12.348Z,6.98
2018-11-23T14:43:40.615Z,6.97
2018-11-23T14:46:08.852Z,6.94
2018-11-23T14:48:37.147Z,6.94
2018-11-23T14:51:05.453Z,7.01
2018-11-23T14:53:33.739Z,6.96
2018-11-23T14:56:02.080Z,6.90
2018-11-23T14:58:30.369Z,6.84
2018-11-23T15:00:58.683Z,6.78
2018-11-23T15:03:26.966Z,6.77
2018-11-23T15:05:55.227Z,6.75
2018-11-23T15:08:23.509Z,6.72
2018-11-23T15:10:51.781Z,6.66
2018-11-23T15:13:20.202Z,6.61
2018-11-23T15:15:48.484Z,6.56
2018-11-23T15:18:16.788Z,6.53
2018-11-23T15:20:46.384Z,6.49
2018-11-23T15:24:28.936Z,6.44
2018-11-23T15:26:57.205Z,6.38
2018-11-23T15:29:25.508Z,6.31
2018-11-23T15:31:53.799Z,6.29
2018-11-23T15:34:22.104Z,6.26
2018-11-23T15:36:50.392Z,6.24
2018-11-23T15:39:18.679Z,6.20
2018-11-23T15:41:46.979Z,6.18
2018-11-23T15:44:15.262Z,6.17
2018-11-23T15:46:43.507Z,6.12
2018-11-23T15:49:11.783Z,6.10
2018-11-23T15:51:40.051Z,6.04
2018-11-23T15:54:08.367Z,6.05
2018-11-23T15:56:36.615Z,6.02
2018-11-23T15:59:05.048Z,5.98
2018-11-23T16:01:33.368Z,5.93
2018-11-23T16:04:01.643Z,5.88
2018-11-23T16:06:30.200Z,5.83
2018-11-23T16:08:58.502Z,5.78
2018-11-23T16:11:26.792Z,5.75
2018-11-23T16:13:55.024Z,5.71
2018-11-23T16:16:23.294Z,5.65
2018-11-23T16:18:52.024Z,5.60
2018-11-23T16:21:20.281Z,5.55
2018-11-23T16:23:48.600Z,5.52
2018-11-23T16:26:16.876Z,5.49
2018-11-23T16:28:45.158Z,5.47
2018-11-23T16:31:13.460Z,5.44
2018-11-23T16:33:41.775Z,5.43
2018-11-23T16:36:10.344Z,5.44
2018-11-23T16:38:38.614Z,5.40
2018-11-23T16:41:06.870Z,5.39
2018-11-23T16:43:35.183Z,5.35
2018-11-23T16:46:03.464Z,5.30
2018-11-23T16:48:31.774Z,5.27
2018-11-23T16:51:00.046Z,5.22
2018-11-23T16:53:28.320Z,5.19
2018-11-23T16:55:56.575Z,5.15
2018-11-23T16:58:24.832Z,5.11
2018-11-23T17:00:53.098Z,5.10
2018-11-23T17:03:22.319Z,5.05
2018-11-23T17:05:51.977Z,5.05
2018-11-23T17:08:20.643Z,5.04
2018-11-23T17:10:48.908Z,5.01
2018-11-23T17:13:17.271Z,5.01
2018-11-23T17:15:45.514Z,4.99
2018-11-23T17:18:13.799Z,4.95
2018-11-23T17:20:42.157Z,4.92
2018-11-23T17:23:11.337Z,4.88
2018-11-23T17:25:39.621Z,4.85
2018-11-23T17:28:09.099Z,4.83
2018-11-23T17:30:37.808Z,4.81
2018-11-23T17:33:06.137Z,4.80
2018-11-23T17:35:34.412Z,4.77
2018-11-23T17:38:02.684Z,4.76
2018-11-23T17:40:32.543Z,4.72
2018-11-23T17:43:00.823Z,4.71
2018-11-23T17:45:30.954Z,4.70
2018-11-23T17:47:59.421Z,4.68
2018-11-23T17:50:28.844Z,4.66
2018-11-23T17:52:57.303Z,4.64
2018-11-23T17:55:25.601Z,4.63
2018-11-23T17:57:54.860Z,4.59
2018-11-23T18:00:24.480Z,4.56
2018-11-23T18:02:53.387Z,4.53
2018-11-23T18:05:22.540Z,4.49
2018-11-23T18:07:51.067Z,4.46
2018-11-23T18:10:21.745Z,4.44
2018-11-23T18:12:50.695Z,4.46
2018-11-23T18:15:21.324Z,4.45
2018-11-23T18:17:50.408Z,4.44
2018-11-23T18:20:19.805Z,4.42
2018-11-23T18:22:48.912Z,4.41
2018-11-23T18:25:19.691Z,4.43
2018-11-23T18:27:48.456Z,4.45
2018-11-23T18:30:16.742Z,4.43
2018-11-23T18:32:44.993Z,4.43
2018-11-23T18:35:13.970Z,4.38
2018-11-23T18:37:42.314Z,4.36
2018-11-23T18:40:11.715Z,4.36
2018-11-23T18:42:39.971Z,4.34
2018-11-23T18:45:11.348Z,4.28
2018-11-23T18:47:39.832Z,4.23
2018-11-23T18:50:09.726Z,4.23
2018-11-23T18:52:37.991Z,4.20
2018-11-23T18:55:06.780Z,4.19
2018-11-23T18:57:35.029Z,4.17
2018-11-23T19:00:03.347Z,4.15
2018-11-23T19:02:31.607Z,4.12
2018-11-23T19:04:59.904Z,4.12
2018-11-23T19:07:28.186Z,4.08
2018-11-23T19:09:56.492Z,4.09
2018-11-23T19:12:24.750Z,4.07
2018-11-23T19:14:53.026Z,4.04
2018-11-23T19:17:21.316Z,4.01
2018-11-23T19:19:49.593Z,3.98
2018-11-23T19:22:17.879Z,3.95
2018-11-23T19:24:46.137Z,3.93
2018-11-23T19:27:14.413Z,3.93
2018-11-23T19:29:42.704Z,3.90
2018-11-23T19:32:10.922Z,3.85
2018-11-23T19:34:39.184Z,3.83
2018-11-23T19:37:07.460Z,3.80
2018-11-23T19:39:35.736Z,3.81
2018-11-23T19:42:04.012Z,3.83
2018-11-23T19:44:32.297Z,3.88
2018-11-23T19:47:00.580Z,3.85
2018-11-23T19:49:28.837Z,3.84
2018-11-23T19:51:57.127Z,3.78
2018-11-23T19:54:25.385Z,3.72
2018-11-23T19:56:53.664Z,3.72
2018-11-23T19:59:21.912Z,3.71
2018-11-23T20:01:50.172Z,3.71
2018-11-23T20:04:18.436Z,3.66
2018-11-23T20:06:46.719Z,3.61
2018-11-23T20:09:14.997Z,3.60
2018-11-23T20:11:43.264Z,3.59
2018-11-23T20:14:11.552Z,3.53
2018-11-23T20:16:39.845Z,3.45
2018-11-23T20:19:08.081Z,3.38
2018-11-23T20:21:36.364Z,3.29
2018-11-23T20:24:04.898Z,3.20
2018-11-23T20:26:33.148Z,3.14
2018-11-23T20:29:01.436Z,3.15
2018-11-23T20:31:29.691Z,3.18
2018-11-23T20:33:57.995Z,3.16
2018-11-23T20:36:26.257Z,3.15
2018-11-23T20:38:54.525Z,3.14
2018-11-23T20:41:22.792Z,3.16
2018-11-23T20:43:51.471Z,3.16
2018-11-23T20:46:19.922Z,3.19
2018-11-23T20:48:48.041Z,3.20
2018-11-23T20:51:16.332Z,3.18
2018-11-23T20:53:44.623Z,3.18
2018-11-23T20:56:12.941Z,3.17
2018-11-23T20:58:41.239Z,3.17
2018-11-23T21:01:09.602Z,3.12
2018-11-23T21:03:37.904Z,3.05
2018-11-23T21:06:06.456Z,3.00
2018-11-23T21:08:34.744Z,2.93
2018-11-23T21:11:03.068Z,2.89
2018-11-23T21:13:31.371Z,2.89
2018-11-23T21:15:59.635Z,2.93
2018-11-23T21:18:27.901Z,2.96
2018-11-23T21:20:56.224Z,2.96
2018-11-23T21:23:24.533Z,2.92
2018-11-23T21:25:52.844Z,2.87
2018-11-23T21:28:21.170Z,2.88
2018-11-23T21:30:49.434Z,2.93
2018-11-23T21:33:18.187Z,2.94
2018-11-23T21:35:46.484Z,2.96
2018-11-23T21:38:14.915Z,2.97
2018-11-23T21:40:44.483Z,2.96
2018-11-23T21:43:11.479Z,2.94
2018-11-23T21:45:39.758Z,2.91
2018-11-23T21:48:08.024Z,2.87
2018-11-23T21:50:36.301Z,2.79
2018-11-23T21:53:04.603Z,2.75
2018-11-23T21:55:32.893Z,2.73
2018-11-23T21:58:01.172Z,2.73
2018-11-23T22:00:29.477Z,2.77
2018-11-23T22:02:57.768Z,2.78
2018-11-23T22:05:26.048Z,2.76
2018-11-23T22:07:54.355Z,2.74
2018-11-23T22:10:22.655Z,2.70
2018-11-23T22:12:51.032Z,2.70
2018-11-23T22:15:22.333Z,2.72
2018-11-23T22:17:51.514Z,2.73
2018-11-23T22:20:20.775Z,2.73
2018-11-23T22:22:49.041Z,2.72
2018-11-23T22:25:18.420Z,2.65
2018-11-23T22:27:46.723Z,2.57
2018-11-23T22:30:17.975Z,2.54
2018-11-23T22:32:46.280Z,2.55
2018-11-23T22:35:14.620Z,2.54
2018-11-23T22:37:42.888Z,2.51
2018-11-23T22:40:13.269Z,2.46
2018-11-23T22:42:42.544Z,2.47
2018-11-23T22:45:12.057Z,2.46
2018-11-23T22:47:40.340Z,2.41
2018-11-23T22:50:11.900Z,2.34
2018-11-23T22:52:40.191Z,2.31
2018-11-23T22:55:10.592Z,2.28
2018-11-23T22:57:39.061Z,2.28
2018-11-23T23:00:11.328Z,2.23
2018-11-23T23:02:39.636Z,2.22
2018-11-23T23:05:08.191Z,2.24
2018-11-23T23:07:36.451Z,2.22
2018-11-23T23:10:05.056Z,2.22
2018-11-23T23:12:33.351Z,2.18
2018-11-23T23:15:01.652Z,2.15
2018-11-23T23:17:32.842Z,2.18
2018-11-23T23:20:01.077Z,2.20
2018-11-23T23:22:29.350Z,2.18
2018-11-23T23:24:57.635Z,2.22
2018-11-23T23:27:25.895Z,2.21
2018-11-23T23:29:54.196Z,2.19
2018-11-23T23:32:22.444Z,2.21
2018-11-23T23:34:50.728Z,2.23
2018-11-23T23:37:19.007Z,2.21
2018-11-23T23:39:47.267Z,2.12
2018-11-23T23:42:15.527Z,2.14
2018-11-23T23:44:43.789Z,2.11
2018-11-23T23:47:12.091Z,2.06
2018-11-23T23:49:40.352Z,2.02
2018-11-23T23:52:08.633Z,1.97
2018-11-23T23:54:36.884Z,1.97
2018-11-23T23:57:05.189Z,2.02
2018-11-23T23:59:33.459Z,2.09
